Terminal Aerodrome Forecast
Issued by NWS

Home | Current Version | Previous Version | Graphics & Text | Print | Product List | Glossary On
Versions: 1 2 3 4 5 6 7 8 9 10 11 12 13 14 15 16 17 18 19
183
FTUS43 KMPX 192330
TAFAXN
TAF
KAXN 192330Z 2000/2024 04016G25KT P6SM SCT250
     FM200200 04010KT P6SM SCT250
     FM200900 07006KT P6SM FEW250=

USA.gov is the U.S. government's official web portal to all federal, state and local government web resources and services.